This is the latest recevied weather packets stored in our database for station/object F4LNO-10. If no packets are shown the sender has not sent any weather packets the latest 10 day(s).
| Time | Temp. | Humidity | Pressure | Rain* | Wind** | Luminosity | Snow |
|---|---|---|---|---|---|---|---|
| 1777896375 | 22.78° C | 61% | 1016.8 hPa | - | - | - | - |
| 1777895475 | 20° C | 66% | 1017 hPa | - | - | - | - |
| 1777894574 | 20.56° C | 64% | 1017 hPa | - | - | - | - |
| 1777893673 | 20° C | 61% | 1017 hPa | - | - | - | - |
| 1777892772 | 20° C | 61% | 1017.1 hPa | - | - | - | - |
| 1777891871 | 20° C | 61% | 1017.3 hPa | - | - | - | - |
| 1777890970 | 20° C | 60% | 1017.3 hPa | - | - | - | - |
| 1777890069 | 20° C | 60% | 1017.3 hPa | - | - | - | - |
| 1777889169 | 21.67° C | 56% | 1016.2 hPa | - | - | - | - |
| 1777889169 | 21.67° C | 56% | 1016.2 hPa | - | - | - | - |
| 1777888268 | 20° C | 61% | 1017.4 hPa | - | - | - | - |
| 1777887367 | 22.22° C | 57% | 1017.2 hPa | - | - | - | - |
| 1777886466 | 20° C | 63% | 1017.1 hPa | - | - | - | - |
| 1777885565 | 21.67° C | 59% | 1017.2 hPa | - | - | - | - |
| 1777884664 | 20° C | 63% | 1017.2 hPa | - | - | - | - |
| 1777883764 | 20° C | 64% | 1017.4 hPa | - | - | - | - |
| 1777882863 | 20° C | 63% | 1017.5 hPa | - | - | - | - |
| 1777881962 | 20° C | 65% | 1017.8 hPa | - | - | - | - |
| 1777881061 | 20° C | 65% | 1017.9 hPa | - | - | - | - |
| 1777880180 | 22.22° C | 61% | 1018 hPa | - | - | - | - |
| 1777879280 | 21.67° C | 64% | 1017.8 hPa | - | - | - | - |
| 1777878379 | 22.22° C | 61% | 1017.7 hPa | - | - | - | - |
| 1777877478 | 22.22° C | 60% | 1017.8 hPa | - | - | - | - |
| 1777876577 | 22.22° C | 61% | 1017.9 hPa | - | - | - | - |
| 1777875676 | 22.22° C | 60% | 1017.6 hPa | - | - | - | - |
* Rain since midnight (hover to see other rain measurements)
** Current wind speed in m/s (hover to see current wind gust speed)